createdAt,value
2019-01-20T00:01:31.099Z,45.73
2019-01-20T00:03:57.559Z,48.57
2019-01-20T00:06:24.094Z,51.60
2019-01-20T00:08:50.737Z,48.50
2019-01-20T00:11:17.425Z,51.63
2019-01-20T00:13:43.929Z,54.53
2019-01-20T00:16:10.409Z,50.00
2019-01-20T00:18:36.947Z,53.57
2019-01-20T00:21:03.491Z,51.73
2019-01-20T00:23:30.505Z,50.87
2019-01-20T00:25:56.971Z,52.43
2019-01-20T00:28:23.438Z,53.93
2019-01-20T00:30:49.939Z,46.13
2019-01-20T00:33:16.399Z,46.13
2019-01-20T00:35:42.971Z,51.57
2019-01-20T00:38:09.465Z,49.27
2019-01-20T00:40:35.922Z,46.87
2019-01-20T00:43:02.398Z,50.70
2019-01-20T00:45:28.896Z,52.13
2019-01-20T00:47:55.417Z,53.37
2019-01-20T00:50:21.887Z,53.30
2019-01-20T00:52:48.350Z,55.47
2019-01-20T00:55:15.055Z,56.13
2019-01-20T00:57:41.552Z,49.63
2019-01-20T01:00:08.043Z,54.60
2019-01-20T01:02:34.543Z,53.10
2019-01-20T01:05:01.017Z,58.30
2019-01-20T01:07:27.610Z,50.23
2019-01-20T01:09:54.103Z,51.60
2019-01-20T01:12:20.563Z,56.83
2019-01-20T01:14:47.067Z,52.40
2019-01-20T01:17:13.518Z,56.43
2019-01-20T01:19:40.463Z,56.77
2019-01-20T01:22:06.930Z,53.27
2019-01-20T01:24:33.418Z,52.80
2019-01-20T01:26:59.915Z,61.83
2019-01-20T01:29:26.370Z,54.70
2019-01-20T01:31:52.902Z,54.47
2019-01-20T01:34:19.410Z,53.07
2019-01-20T01:36:45.893Z,57.10
2019-01-20T01:39:12.453Z,53.67
2019-01-20T01:41:39.264Z,56.67
2019-01-20T01:44:06.102Z,57.03
2019-01-20T01:46:32.599Z,53.13
2019-01-20T01:48:59.065Z,58.20
2019-01-20T01:51:25.624Z,57.20
2019-01-20T01:53:52.123Z,56.37
2019-01-20T01:56:18.611Z,57.10
2019-01-20T01:58:45.108Z,49.67
2019-01-20T02:01:11.603Z,51.90
2019-01-20T02:03:38.115Z,56.97
2019-01-20T02:06:04.617Z,59.93
2019-01-20T02:08:31.125Z,59.87
2019-01-20T02:10:57.574Z,55.17
2019-01-20T02:13:24.076Z,55.03
2019-01-20T02:15:50.606Z,59.33
2019-01-20T02:18:17.070Z,63.63
2019-01-20T02:20:43.570Z,58.67
2019-01-20T02:23:10.034Z,58.00
2019-01-20T02:25:36.522Z,51.57
2019-01-20T02:28:03.113Z,52.97
2019-01-20T02:30:29.624Z,63.17
2019-01-20T02:32:56.073Z,55.77
2019-01-20T02:35:22.570Z,55.63
2019-01-20T02:37:49.058Z,54.93
2019-01-20T02:40:15.619Z,55.27
2019-01-20T02:42:42.106Z,55.87
2019-01-20T02:45:08.603Z,57.30
2019-01-20T02:47:35.110Z,63.03
2019-01-20T02:50:01.610Z,56.00
2019-01-20T02:52:28.156Z,57.53
2019-01-20T02:54:54.646Z,57.37
2019-01-20T02:57:21.222Z,63.03
2019-01-20T02:59:47.703Z,55.17
2019-01-20T03:02:14.194Z,58.53
2019-01-20T03:04:41.174Z,57.67
2019-01-20T03:07:07.664Z,56.87
2019-01-20T03:09:34.150Z,56.97
2019-01-20T03:12:03.686Z,54.93
2019-01-20T03:14:28.753Z,56.30
2019-01-20T03:16:55.270Z,56.70
2019-01-20T03:19:21.763Z,56.80
2019-01-20T03:21:48.218Z,57.93
2019-01-20T03:24:14.693Z,59.37
2019-01-20T03:26:41.198Z,64.00
2019-01-20T03:29:07.740Z,57.90
2019-01-20T03:31:34.211Z,55.13
2019-01-20T03:34:00.669Z,57.73
2019-01-20T03:36:27.175Z,62.10
2019-01-20T03:38:53.662Z,57.77
2019-01-20T03:41:20.208Z,56.63
2019-01-20T03:43:46.666Z,51.83
2019-01-20T03:46:13.148Z,56.70
2019-01-20T03:48:39.658Z,56.97
2019-01-20T03:51:06.147Z,55.70
2019-01-20T03:53:32.695Z,61.10
2019-01-20T03:55:59.156Z,57.93
2019-01-20T03:58:25.660Z,59.43
2019-01-20T04:00:52.118Z,61.30
2019-01-20T04:03:18.613Z,52.73
2019-01-20T04:05:45.128Z,58.60
2019-01-20T04:08:11.606Z,60.40
2019-01-20T04:10:38.071Z,64.87
2019-01-20T04:13:04.569Z,55.07
2019-01-20T04:15:31.024Z,57.57
2019-01-20T04:17:57.587Z,60.63
2019-01-20T04:20:24.041Z,58.80
2019-01-20T04:22:50.507Z,54.40
2019-01-20T04:25:16.986Z,57.83
2019-01-20T04:27:43.523Z,57.70
2019-01-20T04:30:10.041Z,59.57
2019-01-20T04:32:36.498Z,57.17
2019-01-20T04:35:02.965Z,55.97
2019-01-20T04:37:29.475Z,55.87
2019-01-20T04:39:55.972Z,64.73
2019-01-20T04:42:28.920Z,54.83
2019-01-20T04:44:50.655Z,51.30
2019-01-20T04:47:17.118Z,57.80
2019-01-20T04:49:43.631Z,57.70
2019-01-20T04:52:10.128Z,51.87
2019-01-20T04:54:36.732Z,57.47
2019-01-20T04:57:03.219Z,58.77
2019-01-20T04:59:29.681Z,59.93
2019-01-20T05:01:56.203Z,56.37
2019-01-20T05:04:22.668Z,58.77
2019-01-20T05:06:49.129Z,56.77
2019-01-20T05:09:15.634Z,60.10
2019-01-20T05:11:42.127Z,56.47
2019-01-20T05:14:08.652Z,58.10
2019-01-20T05:16:35.115Z,59.40
2019-01-20T05:19:01.585Z,55.33
2019-01-20T05:21:28.090Z,59.80
2019-01-20T05:23:54.553Z,55.40
2019-01-20T05:26:21.039Z,55.87
2019-01-20T05:28:47.506Z,64.80
2019-01-20T05:31:13.969Z,53.53
2019-01-20T05:33:40.466Z,58.77
2019-01-20T05:36:06.959Z,54.40
2019-01-20T05:38:33.482Z,53.17
2019-01-20T05:40:59.949Z,54.20
2019-01-20T05:43:26.443Z,64.73
2019-01-20T05:45:52.940Z,59.47
2019-01-20T05:48:19.447Z,58.27
2019-01-20T05:50:45.897Z,60.40
2019-01-20T05:53:12.418Z,56.17
2019-01-20T05:55:38.912Z,54.77
2019-01-20T05:58:05.370Z,52.80
2019-01-20T06:00:31.903Z,58.87
2019-01-20T06:02:58.418Z,58.03
2019-01-20T06:05:24.955Z,53.77
2019-01-20T06:07:51.431Z,56.07
2019-01-20T06:10:17.894Z,55.63
2019-01-20T06:12:44.425Z,55.07
2019-01-20T06:15:10.902Z,57.63
2019-01-20T06:17:37.374Z,52.73
2019-01-20T06:20:03.841Z,52.00
2019-01-20T06:22:31.618Z,52.33
2019-01-20T06:24:58.563Z,56.20
2019-01-20T06:27:25.063Z,53.30
2019-01-20T06:29:51.555Z,57.30
2019-01-20T06:32:18.046Z,56.10
2019-01-20T06:34:44.543Z,53.60
2019-01-20T06:37:11.111Z,54.10
2019-01-20T06:39:37.554Z,54.60
2019-01-20T06:42:04.047Z,51.17
2019-01-20T06:44:30.570Z,52.50
2019-01-20T06:46:57.068Z,56.83
2019-01-20T06:49:23.597Z,52.17
2019-01-20T06:51:50.191Z,49.60
2019-01-20T06:54:16.688Z,57.83
2019-01-20T06:56:43.149Z,53.47
2019-01-20T06:59:09.655Z,57.53
2019-01-20T07:01:36.143Z,52.83
2019-01-20T07:04:02.671Z,52.40
2019-01-20T07:06:29.182Z,51.67
2019-01-20T07:08:55.650Z,54.83
2019-01-20T07:11:22.146Z,54.30
2019-01-20T07:13:48.609Z,58.03
2019-01-20T07:16:15.106Z,57.47
2019-01-20T07:18:41.605Z,55.87
2019-01-20T07:21:08.112Z,56.80
2019-01-20T07:23:34.615Z,53.13
2019-01-20T07:26:01.102Z,53.13
2019-01-20T07:28:27.568Z,55.07
2019-01-20T07:30:54.055Z,54.10
2019-01-20T07:33:20.607Z,51.97
2019-01-20T07:35:47.080Z,52.53
2019-01-20T07:38:13.539Z,52.03
2019-01-20T07:40:40.040Z,47.97
2019-01-20T07:43:06.532Z,52.20
2019-01-20T07:45:33.023Z,47.10
2019-01-20T07:47:59.482Z,54.77
2019-01-20T07:50:26.011Z,48.10
2019-01-20T07:52:52.511Z,48.03
2019-01-20T07:55:19.003Z,49.77
2019-01-20T07:57:45.562Z,52.33
2019-01-20T08:00:12.031Z,52.67
2019-01-20T08:02:38.527Z,47.33
2019-01-20T08:05:04.989Z,51.27
2019-01-20T08:07:31.463Z,45.87
2019-01-20T08:09:57.934Z,51.83
2019-01-20T08:12:24.458Z,52.27
2019-01-20T08:14:50.962Z,49.83
2019-01-20T08:17:17.418Z,53.50
2019-01-20T08:19:43.920Z,53.70
2019-01-20T08:22:10.386Z,50.80
2019-01-20T08:24:36.908Z,53.40
2019-01-20T08:27:03.410Z,52.53
2019-01-20T08:29:29.946Z,51.50
2019-01-20T08:31:56.414Z,49.13
2019-01-20T08:34:22.974Z,49.93
2019-01-20T08:36:49.495Z,50.00
2019-01-20T08:39:15.987Z,51.90
2019-01-20T08:41:42.458Z,51.47
2019-01-20T08:44:08.927Z,47.43
2019-01-20T08:46:35.432Z,46.83
2019-01-20T08:49:01.928Z,47.00
2019-01-20T08:51:28.483Z,54.73
2019-01-20T08:53:54.987Z,51.77
2019-01-20T08:56:21.484Z,51.87
2019-01-20T08:58:47.974Z,43.93
2019-01-20T09:01:14.466Z,48.43
2019-01-20T09:03:40.978Z,49.53
2019-01-20T09:06:07.467Z,49.23
2019-01-20T09:08:33.929Z,46.23
2019-01-20T09:11:00.435Z,52.33
2019-01-20T09:13:26.925Z,51.60
2019-01-20T09:15:53.445Z,47.97
2019-01-20T09:18:19.905Z,48.60
2019-01-20T09:20:46.402Z,45.97
2019-01-20T09:23:12.865Z,45.03
2019-01-20T09:25:39.341Z,55.57
2019-01-20T09:28:05.866Z,49.97
2019-01-20T09:30:32.333Z,49.00
2019-01-20T09:32:58.870Z,46.37
2019-01-20T09:35:25.342Z,51.20
2019-01-20T09:37:51.833Z,45.97
2019-01-20T09:40:18.296Z,45.97
2019-01-20T09:42:44.766Z,50.43
2019-01-20T09:45:11.328Z,49.43
2019-01-20T09:47:37.786Z,45.03
2019-01-20T09:50:04.289Z,48.63
2019-01-20T09:52:31.202Z,46.97
2019-01-20T09:54:57.691Z,48.93
2019-01-20T09:57:24.183Z,45.67
2019-01-20T09:59:50.667Z,43.93
2019-01-20T10:02:17.131Z,45.67
2019-01-20T10:04:43.739Z,39.93
2019-01-20T10:07:10.198Z,42.30
2019-01-20T10:09:36.715Z,42.23
2019-01-20T10:12:03.174Z,45.27
2019-01-20T10:14:30.151Z,45.50
2019-01-20T10:16:56.675Z,41.87
2019-01-20T10:19:23.228Z,47.47
2019-01-20T10:21:49.672Z,45.03
2019-01-20T10:24:16.167Z,42.63
2019-01-20T10:26:42.654Z,44.53
2019-01-20T10:29:09.179Z,45.43
2019-01-20T10:31:35.655Z,45.10
2019-01-20T10:34:02.153Z,45.10
2019-01-20T10:36:28.686Z,43.57
2019-01-20T10:38:55.151Z,44.43
2019-01-20T10:41:21.666Z,41.00
2019-01-20T10:43:48.138Z,45.70
2019-01-20T10:46:14.630Z,38.83
2019-01-20T10:48:41.131Z,41.93
2019-01-20T10:51:07.624Z,43.80
2019-01-20T10:53:34.141Z,47.77
2019-01-20T10:56:00.610Z,43.47
2019-01-20T10:58:27.102Z,44.13
2019-01-20T11:00:53.575Z,42.77
2019-01-20T11:03:20.111Z,43.27
2019-01-20T11:05:46.576Z,45.60
2019-01-20T11:08:13.074Z,46.90
2019-01-20T11:10:40.104Z,42.30
2019-01-20T11:13:06.731Z,48.63
2019-01-20T11:15:33.280Z,41.13
2019-01-20T11:17:59.771Z,42.73
2019-01-20T11:20:26.233Z,42.57
2019-01-20T11:22:52.698Z,42.50
2019-01-20T11:25:19.192Z,43.87
2019-01-20T11:27:45.762Z,43.27
2019-01-20T11:30:12.271Z,40.90
2019-01-20T11:32:42.396Z,43.00
2019-01-20T11:35:06.881Z,42.47
2019-01-20T11:37:33.355Z,45.23
2019-01-20T11:39:59.931Z,45.73
2019-01-20T11:42:26.430Z,39.40
2019-01-20T11:44:52.976Z,42.10
2019-01-20T11:47:19.435Z,43.47
2019-01-20T11:49:45.903Z,39.47
2019-01-20T11:52:12.403Z,39.00
2019-01-20T11:54:38.930Z,36.40
2019-01-20T11:57:05.398Z,42.10
2019-01-20T11:59:31.862Z,41.87
2019-01-20T12:01:58.326Z,44.37
2019-01-20T12:04:24.859Z,40.47
2019-01-20T12:06:51.323Z,39.67
2019-01-20T12:09:19.309Z,42.53
2019-01-20T12:11:45.813Z,42.47
2019-01-20T12:14:12.316Z,39.07
2019-01-20T12:16:38.837Z,38.90
2019-01-20T12:19:05.351Z,40.57
2019-01-20T12:21:31.842Z,42.17
2019-01-20T12:23:58.335Z,39.27
2019-01-20T12:26:24.827Z,37.30
2019-01-20T12:28:51.294Z,38.87
2019-01-20T12:31:17.829Z,40.50
2019-01-20T12:33:44.294Z,37.53
2019-01-20T12:36:10.811Z,43.97
2019-01-20T12:38:37.303Z,40.43
2019-01-20T12:41:03.769Z,39.97
2019-01-20T12:43:30.293Z,44.20
2019-01-20T12:45:56.765Z,39.97
2019-01-20T12:48:23.269Z,36.27
2019-01-20T12:50:49.770Z,36.43
2019-01-20T12:53:16.256Z,39.77
2019-01-20T12:55:43.050Z,38.73
2019-01-20T12:58:09.521Z,33.10
2019-01-20T13:00:35.985Z,37.90
2019-01-20T13:03:02.455Z,39.17
2019-01-20T13:05:28.963Z,37.90
2019-01-20T13:07:55.518Z,38.47
2019-01-20T13:10:22.008Z,41.47
2019-01-20T13:12:48.467Z,42.57
2019-01-20T13:15:14.968Z,37.73
2019-01-20T13:17:41.480Z,37.73
2019-01-20T13:20:07.955Z,41.07
2019-01-20T13:22:34.439Z,41.13
2019-01-20T13:25:01.052Z,35.50
2019-01-20T13:27:27.511Z,38.73
2019-01-20T13:29:53.978Z,34.03
2019-01-20T13:32:20.460Z,39.57
2019-01-20T13:34:46.922Z,35.17
2019-01-20T13:37:13.529Z,37.90
2019-01-20T13:39:39.997Z,32.93
2019-01-20T13:42:06.491Z,37.30
2019-01-20T13:44:32.947Z,37.70
2019-01-20T13:46:59.413Z,33.03
2019-01-20T13:49:25.971Z,34.83
2019-01-20T13:51:52.569Z,38.70
2019-01-20T13:54:19.104Z,33.87
2019-01-20T13:56:45.631Z,32.47
2019-01-20T13:59:12.474Z,35.80
2019-01-20T14:01:39.315Z,34.53
2019-01-20T14:04:05.848Z,39.27
2019-01-20T14:06:32.693Z,36.13
2019-01-20T14:08:59.225Z,36.50
2019-01-20T14:11:25.762Z,34.07
2019-01-20T14:13:52.293Z,35.20
2019-01-20T14:16:18.828Z,35.00
2019-01-20T14:18:45.739Z,35.07
2019-01-20T14:21:12.821Z,38.93
2019-01-20T14:23:39.353Z,35.07
2019-01-20T14:26:05.888Z,35.43
2019-01-20T14:28:32.421Z,29.27
2019-01-20T14:30:59.265Z,33.27
2019-01-20T14:33:25.799Z,36.60
2019-01-20T14:35:52.391Z,31.33
2019-01-20T14:38:19.174Z,37.70
2019-01-20T14:40:45.717Z,32.70
2019-01-20T14:43:12.551Z,34.33
2019-01-20T14:45:39.085Z,31.67
2019-01-20T14:48:05.622Z,35.63
2019-01-20T14:50:32.157Z,34.63
2019-01-20T14:52:58.700Z,36.70
2019-01-20T14:55:25.531Z,31.37
2019-01-20T14:57:52.067Z,33.17
2019-01-20T15:00:18.914Z,38.03
2019-01-20T15:02:45.749Z,34.17
2019-01-20T15:05:12.286Z,33.63
2019-01-20T15:07:39.125Z,30.03
2019-01-20T15:10:05.661Z,34.20
2019-01-20T15:12:32.201Z,34.20
2019-01-20T15:14:58.729Z,33.27
2019-01-20T15:17:25.269Z,29.63
2019-01-20T15:19:52.106Z,27.13
2019-01-20T15:22:18.956Z,30.67
2019-01-20T15:24:45.789Z,34.83
2019-01-20T15:27:12.322Z,34.50
2019-01-20T15:29:38.859Z,28.90
2019-01-20T15:32:05.701Z,32.27
2019-01-20T15:34:32.234Z,29.17
2019-01-20T15:36:59.083Z,30.87
2019-01-20T15:39:25.609Z,30.97
2019-01-20T15:41:52.148Z,30.67
2019-01-20T15:44:18.679Z,28.10
2019-01-20T15:46:45.512Z,29.80
2019-01-20T15:49:12.362Z,29.73
2019-01-20T15:51:39.204Z,30.10
2019-01-20T15:54:05.739Z,31.40
2019-01-20T15:56:34.121Z,27.30
2019-01-20T15:59:00.445Z,31.80
2019-01-20T16:01:27.068Z,32.33
2019-01-20T16:03:53.719Z,26.63
2019-01-20T16:06:20.264Z,30.23
2019-01-20T16:08:46.790Z,30.33
2019-01-20T16:11:13.325Z,32.80
2019-01-20T16:13:40.166Z,30.37
2019-01-20T16:16:07.015Z,29.73
2019-01-20T16:18:33.541Z,28.57
2019-01-20T16:21:00.388Z,33.57
2019-01-20T16:23:26.925Z,26.90
2019-01-20T16:25:53.452Z,31.20
2019-01-20T16:28:19.987Z,31.10
2019-01-20T16:30:46.830Z,32.90
2019-01-20T16:33:13.399Z,29.90
2019-01-20T16:35:40.206Z,28.53
2019-01-20T16:38:06.739Z,32.33
2019-01-20T16:40:33.277Z,29.47
2019-01-20T16:42:59.807Z,31.77
2019-01-20T16:45:32.052Z,28.00
2019-01-20T16:47:54.721Z,31.00
2019-01-20T16:50:21.254Z,29.37
2019-01-20T16:52:47.797Z,27.97
2019-01-20T16:55:14.630Z,28.30
2019-01-20T16:57:42.269Z,30.20
2019-01-20T17:00:09.258Z,26.80
2019-01-20T17:02:36.079Z,30.23
2019-01-20T17:05:02.613Z,29.40
2019-01-20T17:07:29.453Z,26.30
2019-01-20T17:09:55.988Z,30.07
2019-01-20T17:12:22.527Z,32.40
2019-01-20T17:14:49.049Z,30.30
2019-01-20T17:17:15.898Z,30.03
2019-01-20T17:19:42.434Z,27.97
2019-01-20T17:22:08.968Z,30.27
2019-01-20T17:24:35.810Z,29.20
2019-01-20T17:27:02.651Z,29.47
2019-01-20T17:29:29.495Z,32.63
2019-01-20T17:31:56.010Z,28.83
2019-01-20T17:34:22.562Z,33.53
2019-01-20T17:36:49.404Z,29.97
2019-01-20T17:39:15.939Z,32.03
2019-01-20T17:41:42.474Z,29.17
2019-01-20T17:44:09.317Z,28.80
2019-01-20T17:46:35.849Z,31.10
2019-01-20T17:49:02.385Z,29.70
2019-01-20T17:51:28.919Z,29.23
2019-01-20T17:53:55.761Z,29.47
2019-01-20T17:56:22.298Z,29.23
2019-01-20T17:58:48.837Z,29.30
2019-01-20T18:01:15.671Z,32.17
2019-01-20T18:03:42.516Z,27.80
2019-01-20T18:06:09.049Z,32.10
2019-01-20T18:08:35.582Z,28.87
2019-01-20T18:11:02.423Z,27.93
2019-01-20T18:13:29.264Z,31.17
2019-01-20T18:15:55.799Z,28.10
2019-01-20T18:18:22.724Z,27.80
2019-01-20T18:20:49.484Z,27.73
2019-01-20T18:23:16.021Z,31.70
2019-01-20T18:25:42.858Z,28.43
2019-01-20T18:28:09.702Z,31.70
2019-01-20T18:30:36.422Z,33.83
2019-01-20T18:33:03.080Z,28.23
2019-01-20T18:35:29.923Z,31.40
2019-01-20T18:37:56.462Z,30.80
2019-01-20T18:40:23.109Z,34.53
2019-01-20T18:42:49.837Z,32.10
2019-01-20T18:45:16.366Z,35.47
2019-01-20T18:47:42.898Z,32.63
2019-01-20T18:50:09.744Z,31.07
2019-01-20T18:52:36.628Z,32.40
2019-01-20T18:55:03.422Z,30.97
2019-01-20T18:57:29.961Z,33.27
2019-01-20T18:59:56.801Z,31.30
2019-01-20T19:02:23.338Z,31.77
2019-01-20T19:04:49.870Z,35.70
2019-01-20T19:07:16.711Z,34.73
2019-01-20T19:09:43.248Z,33.63
2019-01-20T19:12:10.086Z,32.00
2019-01-20T19:14:36.621Z,33.63
2019-01-20T19:17:03.468Z,35.90
2019-01-20T19:19:30.308Z,34.43
2019-01-20T19:21:57.148Z,36.97
2019-01-20T19:24:23.680Z,33.67
2019-01-20T19:26:50.218Z,32.67
2019-01-20T19:29:17.055Z,36.57
2019-01-20T19:31:43.899Z,36.63
2019-01-20T19:34:10.433Z,35.90
2019-01-20T19:36:36.967Z,36.40
2019-01-20T19:39:03.504Z,38.53
2019-01-20T19:41:30.035Z,38.73
2019-01-20T19:43:56.878Z,35.03
2019-01-20T19:46:23.412Z,37.90
2019-01-20T19:48:49.955Z,39.03
2019-01-20T19:51:16.483Z,37.17
2019-01-20T19:53:43.326Z,36.27
2019-01-20T19:56:10.166Z,36.03
2019-01-20T19:58:37.007Z,35.50
2019-01-20T20:01:05.071Z,41.57
2019-01-20T20:03:31.922Z,34.30
2019-01-20T20:05:58.453Z,40.20
2019-01-20T20:08:25.298Z,35.57
2019-01-20T20:10:51.830Z,39.93
2019-01-20T20:13:18.364Z,40.07
2019-01-20T20:15:44.903Z,40.17
2019-01-20T20:18:11.744Z,41.37
2019-01-20T20:20:38.581Z,37.70
2019-01-20T20:23:05.119Z,39.67
2019-01-20T20:25:31.652Z,39.47
2019-01-20T20:27:58.493Z,44.10
2019-01-20T20:30:25.030Z,44.17
2019-01-20T20:32:51.871Z,43.07
2019-01-20T20:35:18.720Z,38.63
2019-01-20T20:37:45.254Z,43.63
2019-01-20T20:40:11.780Z,44.90
2019-01-20T20:42:38.314Z,44.33
2019-01-20T20:45:04.931Z,39.17
2019-01-20T20:47:31.691Z,47.43
2019-01-20T20:49:58.537Z,44.80
2019-01-20T20:52:25.082Z,48.60
2019-01-20T20:54:51.914Z,50.50
2019-01-20T20:57:18.760Z,46.50
2019-01-20T20:59:45.285Z,46.10
2019-01-20T21:02:11.822Z,45.03
2019-01-20T21:04:38.356Z,49.63
2019-01-20T21:07:04.890Z,46.60
2019-01-20T21:09:31.731Z,47.97
2019-01-20T21:11:58.571Z,44.43
2019-01-20T21:14:25.125Z,48.90
2019-01-20T21:16:51.948Z,52.63
2019-01-20T21:19:18.491Z,55.87
2019-01-20T21:21:45.016Z,51.73
2019-01-20T21:24:11.859Z,48.80
2019-01-20T21:26:38.394Z,49.07
2019-01-20T21:29:05.234Z,53.40
2019-01-20T21:31:31.776Z,51.30
2019-01-20T21:33:58.611Z,50.10
2019-01-20T21:36:25.452Z,50.50
2019-01-20T21:38:51.988Z,51.97
2019-01-20T21:41:18.531Z,57.80
2019-01-20T21:43:45.366Z,55.60
2019-01-20T21:46:12.205Z,57.53
2019-01-20T21:48:38.739Z,55.37
2019-01-20T21:51:05.585Z,62.87
2019-01-20T21:53:32.422Z,59.60
2019-01-20T21:55:58.957Z,58.23
2019-01-20T21:58:25.800Z,55.80
2019-01-20T22:00:52.641Z,59.53
2019-01-20T22:03:19.177Z,51.53
2019-01-20T22:05:45.710Z,61.07
2019-01-20T22:08:12.551Z,55.80
2019-01-20T22:10:39.087Z,62.83
2019-01-20T22:13:05.930Z,60.77
2019-01-20T22:15:32.466Z,60.57
2019-01-20T22:17:58.997Z,61.73
2019-01-20T22:20:25.641Z,59.70
2019-01-20T22:22:52.378Z,61.07
2019-01-20T22:25:18.909Z,57.80
2019-01-20T22:27:45.749Z,66.17
2019-01-20T22:30:12.287Z,68.17
2019-01-20T22:32:38.818Z,63.43
2019-01-20T22:35:07.080Z,64.73
2019-01-20T22:37:35.267Z,63.37
2019-01-20T22:40:02.108Z,64.97
2019-01-20T22:42:28.950Z,62.03
2019-01-20T22:44:55.791Z,63.00
2019-01-20T22:47:22.327Z,69.43
2019-01-20T22:49:49.169Z,66.87
2019-01-20T22:52:15.702Z,69.37
2019-01-20T22:54:42.544Z,65.37
2019-01-20T22:57:09.079Z,65.80
2019-01-20T22:59:35.613Z,75.83
2019-01-20T23:02:02.149Z,68.30
2019-01-20T23:04:28.682Z,70.20
2019-01-20T23:06:55.217Z,70.20
2019-01-20T23:09:22.059Z,75.53
2019-01-20T23:11:48.597Z,75.10
2019-01-20T23:14:15.129Z,70.80
2019-01-20T23:16:41.969Z,74.77
2019-01-20T23:19:08.811Z,70.17
2019-01-20T23:21:35.403Z,73.83
2019-01-20T23:24:02.187Z,72.60
2019-01-20T23:26:28.724Z,73.47
2019-01-20T23:28:55.261Z,81.37
2019-01-20T23:31:22.103Z,75.17
2019-01-20T23:33:48.639Z,77.97
2019-01-20T23:36:15.482Z,84.30
2019-01-20T23:38:42.014Z,75.10
2019-01-20T23:41:08.852Z,79.13
2019-01-20T23:43:35.691Z,80.70
2019-01-20T23:46:02.536Z,82.37
2019-01-20T23:48:29.069Z,89.17
2019-01-20T23:50:55.909Z,81.53
2019-01-20T23:53:22.443Z,82.63
2019-01-20T23:55:48.992Z,87.03
2019-01-20T23:58:15.820Z,87.63
